sensor_id;sensor_type;location;lat;lon;timestamp;pressure;altitude;pressure_sealevel;temperature;humidity
38688;BME280;24444;53.216;-6.664;2022-10-10T00:00:35;100271.35;;;1.00;100.00
38688;BME280;24444;53.216;-6.664;2022-10-10T00:03:03;100274.82;;;1.40;100.00
38688;BME280;24444;53.216;-6.664;2022-10-10T00:05:31;100274.44;;;0.64;100.00
38688;BME280;24444;53.216;-6.664;2022-10-10T00:07:59;100276.75;;;1.28;100.00
38688;BME280;24444;53.216;-6.664;2022-10-10T00:10:27;100278.78;;;1.26;100.00
38688;BME280;24444;53.216;-6.664;2022-10-10T00:12:54;100280.88;;;0.81;100.00
38688;BME280;24444;53.216;-6.664;2022-10-10T00:15:21;100282.54;;;0.37;100.00
38688;BME280;24444;53.216;-6.664;2022-10-10T00:17:49;100284.99;;;0.40;100.00
38688;BME280;24444;53.216;-6.664;2022-10-10T00:20:18;100287.52;;;0.94;100.00
38688;BME280;24444;53.216;-6.664;2022-10-10T00:22:46;100286.31;;;0.88;100.00
38688;BME280;24444;53.216;-6.664;2022-10-10T00:25:14;100292.70;;;0.44;100.00
38688;BME280;24444;53.216;-6.664;2022-10-10T00:27:42;100292.95;;;0.49;100.00
38688;BME280;24444;53.216;-6.664;2022-10-10T00:32:34;100290.49;;;0.56;100.00
38688;BME280;24444;53.216;-6.664;2022-10-10T00:35:01;100291.95;;;0.25;100.00
38688;BME280;24444;53.216;-6.664;2022-10-10T00:37:29;100295.44;;;0.29;100.00
38688;BME280;24444;53.216;-6.664;2022-10-10T00:39:57;100296.44;;;-0.42;100.00
38688;BME280;24444;53.216;-6.664;2022-10-10T00:42:24;100304.38;;;0.83;100.00
38688;BME280;24444;53.216;-6.664;2022-10-10T00:45:21;100305.30;;;1.22;100.00
38688;BME280;24444;53.216;-6.664;2022-10-10T00:47:51;100314.41;;;0.51;100.00
38688;BME280;24444;53.216;-6.664;2022-10-10T00:50:20;100316.51;;;0.54;100.00
38688;BME280;24444;53.216;-6.664;2022-10-10T00:52:48;100320.69;;;0.82;100.00
38688;BME280;24444;53.216;-6.664;2022-10-10T00:55:16;100327.70;;;0.35;100.00
38688;BME280;24444;53.216;-6.664;2022-10-10T00:57:44;100330.62;;;0.68;100.00
38688;BME280;24444;53.216;-6.664;2022-10-10T01:00:12;100332.54;;;0.05;100.00
38688;BME280;24444;53.216;-6.664;2022-10-10T01:02:39;100331.66;;;0.30;100.00
38688;BME280;24444;53.216;-6.664;2022-10-10T01:05:07;100335.76;;;0.13;100.00
38688;BME280;24444;53.216;-6.664;2022-10-10T01:07:34;100343.85;;;0.12;100.00
38688;BME280;24444;53.216;-6.664;2022-10-10T01:10:07;100348.15;;;0.05;100.00
38688;BME280;24444;53.216;-6.664;2022-10-10T01:12:46;100351.41;;;0.37;100.00
38688;BME280;24444;53.216;-6.664;2022-10-10T01:15:23;100356.99;;;0.11;100.00
38688;BME280;24444;53.216;-6.664;2022-10-10T01:17:56;100362.18;;;-0.12;100.00
38688;BME280;24444;53.216;-6.664;2022-10-10T01:20:39;100363.79;;;0.34;100.00
38688;BME280;24444;53.216;-6.664;2022-10-10T01:25:35;100382.41;;;0.46;100.00
38688;BME280;24444;53.216;-6.664;2022-10-10T01:28:18;100388.68;;;-0.29;100.00
38688;BME280;24444;53.216;-6.664;2022-10-10T01:30:46;100389.70;;;0.37;100.00
38688;BME280;24444;53.216;-6.664;2022-10-10T01:33:18;100392.70;;;0.13;100.00
38688;BME280;24444;53.216;-6.664;2022-10-10T01:35:50;100401.21;;;0.14;100.00
38688;BME280;24444;53.216;-6.664;2022-10-10T01:38:26;100409.96;;;-0.12;100.00
38688;BME280;24444;53.216;-6.664;2022-10-10T01:40:58;100410.96;;;0.38;100.00
38688;BME280;24444;53.216;-6.664;2022-10-10T01:43:29;100414.29;;;0.40;100.00
38688;BME280;24444;53.216;-6.664;2022-10-10T01:45:56;100411.28;;;0.63;100.00
38688;BME280;24444;53.216;-6.664;2022-10-10T01:48:26;100411.91;;;0.27;100.00
38688;BME280;24444;53.216;-6.664;2022-10-10T01:51:10;100415.88;;;0.01;100.00
38688;BME280;24444;53.216;-6.664;2022-10-10T01:53:45;100416.53;;;-0.31;100.00
38688;BME280;24444;53.216;-6.664;2022-10-10T01:56:21;100418.92;;;-0.45;100.00
38688;BME280;24444;53.216;-6.664;2022-10-10T01:59:06;100422.89;;;-0.34;100.00
38688;BME280;24444;53.216;-6.664;2022-10-10T02:01:42;100431.81;;;-0.07;100.00
38688;BME280;24444;53.216;-6.664;2022-10-10T02:04:15;100437.38;;;-0.44;100.00
38688;BME280;24444;53.216;-6.664;2022-10-10T02:06:48;100443.12;;;0.16;100.00
38688;BME280;24444;53.216;-6.664;2022-10-10T02:09:18;100444.53;;;-0.38;100.00
38688;BME280;24444;53.216;-6.664;2022-10-10T02:11:48;100442.27;;;-0.27;100.00
38688;BME280;24444;53.216;-6.664;2022-10-10T02:14:19;100445.15;;;-0.39;100.00
38688;BME280;24444;53.216;-6.664;2022-10-10T02:16:50;100448.17;;;-0.40;100.00
38688;BME280;24444;53.216;-6.664;2022-10-10T02:19:21;100453.78;;;-0.51;100.00
38688;BME280;24444;53.216;-6.664;2022-10-10T02:21:50;100454.34;;;-0.83;100.00
38688;BME280;24444;53.216;-6.664;2022-10-10T02:24:22;100458.85;;;-0.48;100.00
38688;BME280;24444;53.216;-6.664;2022-10-10T02:26:54;100449.99;;;-0.15;100.00
38688;BME280;24444;53.216;-6.664;2022-10-10T02:29:25;100461.47;;;-0.56;100.00
38688;BME280;24444;53.216;-6.664;2022-10-10T02:31:59;100458.81;;;-0.08;100.00
38688;BME280;24444;53.216;-6.664;2022-10-10T02:34:32;100463.93;;;-0.58;100.00
38688;BME280;24444;53.216;-6.664;2022-10-10T02:37:04;100468.38;;;-0.56;100.00
38688;BME280;24444;53.216;-6.664;2022-10-10T02:39:35;100472.33;;;-0.37;100.00
38688;BME280;24444;53.216;-6.664;2022-10-10T02:42:04;100471.33;;;-0.07;100.00
38688;BME280;24444;53.216;-6.664;2022-10-10T02:44:33;100473.25;;;-0.18;100.00
38688;BME280;24444;53.216;-6.664;2022-10-10T02:47:00;100473.22;;;-0.39;100.00
38688;BME280;24444;53.216;-6.664;2022-10-10T02:49:30;100473.03;;;-0.47;100.00
38688;BME280;24444;53.216;-6.664;2022-10-10T02:51:57;100474.95;;;-0.20;100.00
38688;BME280;24444;53.216;-6.664;2022-10-10T02:54:26;100478.93;;;-0.31;100.00
38688;BME280;24444;53.216;-6.664;2022-10-10T02:56:53;100476.37;;;-0.58;100.00
38688;BME280;24444;53.216;-6.664;2022-10-10T02:59:21;100483.75;;;-0.26;100.00
38688;BME280;24444;53.216;-6.664;2022-10-10T03:01:48;100487.58;;;-0.57;100.00
38688;BME280;24444;53.216;-6.664;2022-10-10T03:04:15;100487.13;;;-0.34;100.00
38688;BME280;24444;53.216;-6.664;2022-10-10T03:06:42;100491.32;;;-0.11;100.00
38688;BME280;24444;53.216;-6.664;2022-10-10T03:09:10;100493.55;;;-0.01;100.00
38688;BME280;24444;53.216;-6.664;2022-10-10T03:11:37;100491.13;;;-0.08;100.00
38688;BME280;24444;53.216;-6.664;2022-10-10T03:14:04;100493.16;;;-0.28;100.00
38688;BME280;24444;53.216;-6.664;2022-10-10T03:16:32;100498.72;;;-0.02;100.00
38688;BME280;24444;53.216;-6.664;2022-10-10T03:19:00;100497.67;;;-0.13;100.00
38688;BME280;24444;53.216;-6.664;2022-10-10T03:21:27;100506.01;;;-0.37;100.00
38688;BME280;24444;53.216;-6.664;2022-10-10T03:23:54;100503.99;;;0.13;100.00
38688;BME280;24444;53.216;-6.664;2022-10-10T03:26:21;100510.14;;;-0.03;100.00
38688;BME280;24444;53.216;-6.664;2022-10-10T03:28:48;100513.65;;;0.15;100.00
38688;BME280;24444;53.216;-6.664;2022-10-10T03:31:15;100514.19;;;-0.22;100.00
38688;BME280;24444;53.216;-6.664;2022-10-10T03:33:42;100514.68;;;0.36;100.00
38688;BME280;24444;53.216;-6.664;2022-10-10T03:36:09;100515.68;;;0.22;100.00
38688;BME280;24444;53.216;-6.664;2022-10-10T03:38:38;100521.54;;;0.02;100.00
38688;BME280;24444;53.216;-6.664;2022-10-10T03:41:05;100527.90;;;-0.29;100.00
38688;BME280;24444;53.216;-6.664;2022-10-10T03:43:33;100531.00;;;-0.19;100.00
38688;BME280;24444;53.216;-6.664;2022-10-10T03:46:00;100534.02;;;-0.28;100.00
38688;BME280;24444;53.216;-6.664;2022-10-10T03:48:27;100533.52;;;-0.23;100.00
38688;BME280;24444;53.216;-6.664;2022-10-10T03:50:54;100538.10;;;-0.33;100.00
38688;BME280;24444;53.216;-6.664;2022-10-10T03:53:21;100540.80;;;-0.00;100.00
38688;BME280;24444;53.216;-6.664;2022-10-10T03:55:48;100547.24;;;-0.53;100.00
38688;BME280;24444;53.216;-6.664;2022-10-10T03:58:15;100551.19;;;0.05;100.00
38688;BME280;24444;53.216;-6.664;2022-10-10T04:00:43;100556.90;;;-0.42;100.00
38688;BME280;24444;53.216;-6.664;2022-10-10T04:03:10;100558.85;;;0.23;100.00
38688;BME280;24444;53.216;-6.664;2022-10-10T04:05:38;100560.81;;;-0.47;100.00
38688;BME280;24444;53.216;-6.664;2022-10-10T04:08:05;100561.79;;;-0.66;100.00
38688;BME280;24444;53.216;-6.664;2022-10-10T04:10:32;100566.08;;;-0.48;100.00
38688;BME280;24444;53.216;-6.664;2022-10-10T04:13:00;100570.92;;;-0.53;100.00
38688;BME280;24444;53.216;-6.664;2022-10-10T04:15:27;100571.26;;;-0.32;100.00
38688;BME280;24444;53.216;-6.664;2022-10-10T04:17:54;100570.34;;;-0.25;100.00
38688;BME280;24444;53.216;-6.664;2022-10-10T04:20:22;100571.65;;;-0.48;100.00
38688;BME280;24444;53.216;-6.664;2022-10-10T04:22:49;100573.87;;;-0.61;100.00
38688;BME280;24444;53.216;-6.664;2022-10-10T04:25:17;100580.98;;;-0.85;100.00
38688;BME280;24444;53.216;-6.664;2022-10-10T04:27:45;100590.11;;;-0.12;100.00
38688;BME280;24444;53.216;-6.664;2022-10-10T04:30:12;100593.64;;;-0.37;100.00
38688;BME280;24444;53.216;-6.664;2022-10-10T04:32:40;100600.18;;;-0.40;100.00
38688;BME280;24444;53.216;-6.664;2022-10-10T04:35:07;100602.44;;;-0.55;100.00
38688;BME280;24444;53.216;-6.664;2022-10-10T04:37:34;100609.91;;;-0.27;100.00
38688;BME280;24444;53.216;-6.664;2022-10-10T04:40:02;100615.24;;;-0.63;100.00
38688;BME280;24444;53.216;-6.664;2022-10-10T04:42:30;100615.57;;;0.05;100.00
38688;BME280;24444;53.216;-6.664;2022-10-10T04:44:57;100617.81;;;-0.07;100.00
38688;BME280;24444;53.216;-6.664;2022-10-10T04:47:24;100620.19;;;-0.83;100.00
38688;BME280;24444;53.216;-6.664;2022-10-10T04:49:51;100627.57;;;0.10;100.00
38688;BME280;24444;53.216;-6.664;2022-10-10T04:52:18;100632.70;;;0.04;100.00
38688;BME280;24444;53.216;-6.664;2022-10-10T04:54:45;100634.86;;;-0.44;100.00
38688;BME280;24444;53.216;-6.664;2022-10-10T04:57:12;100639.05;;;0.11;100.00
38688;BME280;24444;53.216;-6.664;2022-10-10T04:59:39;100642.68;;;0.11;100.00
38688;BME280;24444;53.216;-6.664;2022-10-10T05:02:06;100648.91;;;-0.33;100.00
38688;BME280;24444;53.216;-6.664;2022-10-10T05:04:33;100654.84;;;-0.38;100.00
38688;BME280;24444;53.216;-6.664;2022-10-10T05:07:00;100659.66;;;-0.41;100.00
38688;BME280;24444;53.216;-6.664;2022-10-10T05:09:27;100667.24;;;-0.51;100.00
38688;BME280;24444;53.216;-6.664;2022-10-10T05:11:54;100669.29;;;-0.12;100.00
38688;BME280;24444;53.216;-6.664;2022-10-10T05:14:21;100668.50;;;-0.34;100.00
38688;BME280;24444;53.216;-6.664;2022-10-10T05:16:48;100673.90;;;-0.33;100.00
38688;BME280;24444;53.216;-6.664;2022-10-10T05:19:15;100677.57;;;-0.30;100.00
38688;BME280;24444;53.216;-6.664;2022-10-10T05:21:43;100683.39;;;-0.28;100.00
38688;BME280;24444;53.216;-6.664;2022-10-10T05:24:10;100684.24;;;-0.27;100.00
38688;BME280;24444;53.216;-6.664;2022-10-10T05:26:37;100687.47;;;-0.15;100.00
38688;BME280;24444;53.216;-6.664;2022-10-10T05:29:04;100692.01;;;-0.02;100.00
38688;BME280;24444;53.216;-6.664;2022-10-10T05:31:32;100695.62;;;-0.14;100.00
38688;BME280;24444;53.216;-6.664;2022-10-10T05:33:59;100698.68;;;-0.18;100.00
38688;BME280;24444;53.216;-6.664;2022-10-10T05:36:26;100703.52;;;-0.12;100.00
38688;BME280;24444;53.216;-6.664;2022-10-10T05:38:53;100710.63;;;0.22;100.00
38688;BME280;24444;53.216;-6.664;2022-10-10T05:41:20;100717.69;;;-0.63;100.00
38688;BME280;24444;53.216;-6.664;2022-10-10T05:43:47;100719.69;;;-0.48;100.00
38688;BME280;24444;53.216;-6.664;2022-10-10T05:46:14;100723.58;;;-0.13;100.00
38688;BME280;24444;53.216;-6.664;2022-10-10T05:48:41;100728.48;;;-0.85;100.00
38688;BME280;24444;53.216;-6.664;2022-10-10T05:51:08;100734.38;;;-0.92;100.00
38688;BME280;24444;53.216;-6.664;2022-10-10T05:53:35;100739.31;;;-0.65;100.00
38688;BME280;24444;53.216;-6.664;2022-10-10T05:56:02;100747.92;;;-0.76;100.00
38688;BME280;24444;53.216;-6.664;2022-10-10T05:58:30;100753.27;;;-0.75;100.00
38688;BME280;24444;53.216;-6.664;2022-10-10T06:01:02;100760.04;;;-0.79;100.00
38688;BME280;24444;53.216;-6.664;2022-10-10T06:03:31;100768.69;;;-0.77;100.00
38688;BME280;24444;53.216;-6.664;2022-10-10T06:05:59;100773.77;;;-0.84;100.00
38688;BME280;24444;53.216;-6.664;2022-10-10T06:08:27;100773.88;;;-0.92;100.00
38688;BME280;24444;53.216;-6.664;2022-10-10T06:11:00;100775.01;;;-0.94;100.00
38688;BME280;24444;53.216;-6.664;2022-10-10T06:13:28;100783.16;;;-1.07;100.00
38688;BME280;24444;53.216;-6.664;2022-10-10T06:15:55;100787.14;;;-0.82;100.00
38688;BME280;24444;53.216;-6.664;2022-10-10T06:18:23;100788.79;;;-0.87;100.00
38688;BME280;24444;53.216;-6.664;2022-10-10T06:20:50;100792.11;;;-0.64;100.00
38688;BME280;24444;53.216;-6.664;2022-10-10T06:23:17;100791.94;;;-0.72;100.00
38688;BME280;24444;53.216;-6.664;2022-10-10T06:25:44;100793.99;;;-0.71;100.00
38688;BME280;24444;53.216;-6.664;2022-10-10T06:28:11;100804.98;;;-0.64;100.00
38688;BME280;24444;53.216;-6.664;2022-10-10T06:30:39;100808.45;;;-0.86;100.00
38688;BME280;24444;53.216;-6.664;2022-10-10T06:33:07;100813.45;;;-0.61;100.00
38688;BME280;24444;53.216;-6.664;2022-10-10T06:35:40;100818.34;;;-0.61;100.00
38688;BME280;24444;53.216;-6.664;2022-10-10T06:38:08;100825.61;;;-0.69;100.00
38688;BME280;24444;53.216;-6.664;2022-10-10T06:40:36;100830.29;;;-0.64;100.00
38688;BME280;24444;53.216;-6.664;2022-10-10T06:43:04;100832.63;;;-0.66;100.00
38688;BME280;24444;53.216;-6.664;2022-10-10T06:45:34;100831.60;;;-0.64;100.00
38688;BME280;24444;53.216;-6.664;2022-10-10T06:48:02;100834.37;;;-0.63;100.00
38688;BME280;24444;53.216;-6.664;2022-10-10T06:50:29;100839.48;;;-0.50;100.00
38688;BME280;24444;53.216;-6.664;2022-10-10T06:52:56;100844.32;;;-0.65;100.00
38688;BME280;24444;53.216;-6.664;2022-10-10T06:55:23;100851.32;;;-0.50;100.00
38688;BME280;24444;53.216;-6.664;2022-10-10T06:57:51;100859.32;;;-0.61;100.00
38688;BME280;24444;53.216;-6.664;2022-10-10T07:00:18;100864.20;;;-0.42;100.00
38688;BME280;24444;53.216;-6.664;2022-10-10T07:02:46;100866.14;;;-0.52;100.00
38688;BME280;24444;53.216;-6.664;2022-10-10T07:05:15;100872.37;;;-0.43;100.00
38688;BME280;24444;53.216;-6.664;2022-10-10T07:07:43;100880.56;;;-0.65;100.00
38688;BME280;24444;53.216;-6.664;2022-10-10T07:10:12;100882.81;;;-0.51;100.00
38688;BME280;24444;53.216;-6.664;2022-10-10T07:12:41;100881.75;;;-0.42;100.00
38688;BME280;24444;53.216;-6.664;2022-10-10T07:15:09;100886.49;;;-0.55;100.00
38688;BME280;24444;53.216;-6.664;2022-10-10T07:17:36;100889.91;;;-0.18;100.00
38688;BME280;24444;53.216;-6.664;2022-10-10T07:20:05;100894.60;;;-0.44;100.00
38688;BME280;24444;53.216;-6.664;2022-10-10T07:22:33;100897.01;;;-0.06;100.00
38688;BME280;24444;53.216;-6.664;2022-10-10T07:25:00;100897.80;;;-0.26;100.00
38688;BME280;24444;53.216;-6.664;2022-10-10T07:27:28;100900.93;;;0.27;100.00
38688;BME280;24444;53.216;-6.664;2022-10-10T07:29:54;100907.44;;;-0.28;100.00
38688;BME280;24444;53.216;-6.664;2022-10-10T07:32:22;100914.04;;;0.16;100.00
38688;BME280;24444;53.216;-6.664;2022-10-10T07:34:49;100919.81;;;-0.55;100.00
38688;BME280;24444;53.216;-6.664;2022-10-10T07:37:16;100924.53;;;-0.06;100.00
38688;BME280;24444;53.216;-6.664;2022-10-10T07:39:43;100928.38;;;-0.01;100.00
38688;BME280;24444;53.216;-6.664;2022-10-10T07:42:11;100934.11;;;0.13;100.00
38688;BME280;24444;53.216;-6.664;2022-10-10T07:44:37;100938.30;;;-0.11;100.00
38688;BME280;24444;53.216;-6.664;2022-10-10T07:47:05;100943.14;;;0.30;100.00
38688;BME280;24444;53.216;-6.664;2022-10-10T07:49:32;100945.75;;;0.08;100.00
38688;BME280;24444;53.216;-6.664;2022-10-10T07:51:59;100949.17;;;0.05;100.00
38688;BME280;24444;53.216;-6.664;2022-10-10T07:54:27;100950.40;;;0.35;100.00
38688;BME280;24444;53.216;-6.664;2022-10-10T07:56:55;100957.66;;;0.41;100.00
38688;BME280;24444;53.216;-6.664;2022-10-10T07:59:23;100962.99;;;0.23;100.00
38688;BME280;24444;53.216;-6.664;2022-10-10T08:01:51;100968.38;;;0.35;100.00
38688;BME280;24444;53.216;-6.664;2022-10-10T08:04:18;100973.60;;;0.76;100.00
38688;BME280;24444;53.216;-6.664;2022-10-10T08:06:46;100978.13;;;0.46;100.00
38688;BME280;24444;53.216;-6.664;2022-10-10T08:09:13;100981.66;;;1.04;100.00
38688;BME280;24444;53.216;-6.664;2022-10-10T08:11:41;100986.01;;;1.16;100.00
38688;BME280;24444;53.216;-6.664;2022-10-10T08:14:08;100991.09;;;0.73;100.00
38688;BME280;24444;53.216;-6.664;2022-10-10T08:16:35;100999.54;;;1.35;100.00
38688;BME280;24444;53.216;-6.664;2022-10-10T08:19:02;100999.15;;;1.92;100.00
38688;BME280;24444;53.216;-6.664;2022-10-10T08:21:29;101009.53;;;1.47;100.00
38688;BME280;24444;53.216;-6.664;2022-10-10T08:23:56;101010.70;;;2.43;100.00
38688;BME280;24444;53.216;-6.664;2022-10-10T08:26:24;101013.97;;;3.73;100.00
38688;BME280;24444;53.216;-6.664;2022-10-10T08:28:51;101008.38;;;5.21;100.00
38688;BME280;24444;53.216;-6.664;2022-10-10T08:31:20;101004.65;;;6.18;100.00
38688;BME280;24444;53.216;-6.664;2022-10-10T08:33:49;101004.98;;;7.84;95.66
38688;BME280;24444;53.216;-6.664;2022-10-10T08:36:18;101006.48;;;8.34;91.56
38688;BME280;24444;53.216;-6.664;2022-10-10T08:38:46;101010.33;;;8.11;87.58
38688;BME280;24444;53.216;-6.664;2022-10-10T08:41:19;101013.98;;;8.52;82.89
38688;BME280;24444;53.216;-6.664;2022-10-10T08:43:54;101020.07;;;9.70;80.65
38688;BME280;24444;53.216;-6.664;2022-10-10T08:46:30;101020.67;;;9.83;76.12
38688;BME280;24444;53.216;-6.664;2022-10-10T08:49:02;101025.64;;;10.19;72.32
38688;BME280;24444;53.216;-6.664;2022-10-10T08:51:31;101035.88;;;10.43;72.11
38688;BME280;24444;53.216;-6.664;2022-10-10T08:54:02;101040.73;;;10.70;68.10
38688;BME280;24444;53.216;-6.664;2022-10-10T08:56:32;101047.32;;;11.54;68.43
38688;BME280;24444;53.216;-6.664;2022-10-10T08:59:06;101046.37;;;9.90;66.84
38688;BME280;24444;53.216;-6.664;2022-10-10T09:01:36;101054.45;;;8.59;72.38
38688;BME280;24444;53.216;-6.664;2022-10-10T09:04:05;101060.06;;;7.82;80.04
38688;BME280;24444;53.216;-6.664;2022-10-10T09:06:44;101058.98;;;8.32;79.64
38688;BME280;24444;53.216;-6.664;2022-10-10T09:09:20;101063.81;;;9.60;77.84
38688;BME280;24444;53.216;-6.664;2022-10-10T09:11:58;101070.14;;;10.87;72.23
38688;BME280;24444;53.216;-6.664;2022-10-10T09:14:36;101073.37;;;10.77;68.96
38688;BME280;24444;53.216;-6.664;2022-10-10T09:17:18;101071.26;;;11.00;67.66
38688;BME280;24444;53.216;-6.664;2022-10-10T09:19:56;101073.15;;;11.78;66.91
38688;BME280;24444;53.216;-6.664;2022-10-10T09:22:30;101077.20;;;12.26;63.77
38688;BME280;24444;53.216;-6.664;2022-10-10T09:25:03;101079.66;;;12.30;61.57
38688;BME280;24444;53.216;-6.664;2022-10-10T09:27:36;101082.13;;;12.69;59.80
38688;BME280;24444;53.216;-6.664;2022-10-10T09:30:09;101089.16;;;13.02;58.68
38688;BME280;24444;53.216;-6.664;2022-10-10T09:32:43;101093.21;;;12.92;59.58
38688;BME280;24444;53.216;-6.664;2022-10-10T09:35:16;101095.50;;;12.98;54.49
38688;BME280;24444;53.216;-6.664;2022-10-10T09:37:48;101101.59;;;13.31;55.93
38688;BME280;24444;53.216;-6.664;2022-10-10T09:40:22;101102.94;;;13.32;54.89
38688;BME280;24444;53.216;-6.664;2022-10-10T09:42:50;101108.21;;;12.99;54.32
38688;BME280;24444;53.216;-6.664;2022-10-10T09:45:20;101109.56;;;13.88;53.97
38688;BME280;24444;53.216;-6.664;2022-10-10T09:47:53;101113.38;;;13.47;53.07
38688;BME280;24444;53.216;-6.664;2022-10-10T09:50:21;101116.99;;;14.24;51.93
38688;BME280;24444;53.216;-6.664;2022-10-10T09:52:50;101124.50;;;13.97;52.05
38688;BME280;24444;53.216;-6.664;2022-10-10T09:55:22;101127.20;;;13.57;51.89
38688;BME280;24444;53.216;-6.664;2022-10-10T09:57:51;101130.88;;;13.79;52.73
38688;BME280;24444;53.216;-6.664;2022-10-10T10:00:27;101131.46;;;13.11;50.80
38688;BME280;24444;53.216;-6.664;2022-10-10T10:03:09;101134.07;;;14.27;54.05
38688;BME280;24444;53.216;-6.664;2022-10-10T10:05:37;101132.70;;;14.99;52.31
38688;BME280;24444;53.216;-6.664;2022-10-10T10:08:15;101131.33;;;14.35;50.03
38688;BME280;24444;53.216;-6.664;2022-10-10T10:10:44;101138.76;;;13.34;53.24
38688;BME280;24444;53.216;-6.664;2022-10-10T10:13:13;101143.59;;;12.73;54.35
38688;BME280;24444;53.216;-6.664;2022-10-10T10:15:46;101141.80;;;12.08;55.79
38688;BME280;24444;53.216;-6.664;2022-10-10T10:18:21;101147.01;;;10.98;56.84
38688;BME280;24444;53.216;-6.664;2022-10-10T10:20:49;101149.89;;;11.49;63.23
38688;BME280;24444;53.216;-6.664;2022-10-10T10:23:23;101148.40;;;11.22;61.45
38688;BME280;24444;53.216;-6.664;2022-10-10T10:25:59;101149.40;;;11.89;65.32
38688;BME280;24444;53.216;-6.664;2022-10-10T10:28:27;101150.89;;;12.75;60.68
38688;BME280;24444;53.216;-6.664;2022-10-10T10:30:57;101154.89;;;13.66;58.32
38688;BME280;24444;53.216;-6.664;2022-10-10T10:33:35;101160.56;;;14.57;55.04
38688;BME280;24444;53.216;-6.664;2022-10-10T10:36:14;101162.96;;;15.10;52.66
38688;BME280;24444;53.216;-6.664;2022-10-10T10:38:49;101168.31;;;14.41;51.25
38688;BME280;24444;53.216;-6.664;2022-10-10T10:41:24;101168.81;;;15.07;51.08
38688;BME280;24444;53.216;-6.664;2022-10-10T10:44:10;101172.65;;;13.77;49.87
38688;BME280;24444;53.216;-6.664;2022-10-10T10:46:50;101173.85;;;13.36;56.14
38688;BME280;24444;53.216;-6.664;2022-10-10T10:49:25;101170.57;;;12.81;56.46
38688;BME280;24444;53.216;-6.664;2022-10-10T10:52:12;101172.81;;;12.17;57.69
38688;BME280;24444;53.216;-6.664;2022-10-10T10:54:53;101173.63;;;11.33;62.28
38688;BME280;24444;53.216;-6.664;2022-10-10T10:57:33;101175.41;;;11.53;62.47
38688;BME280;24444;53.216;-6.664;2022-10-10T11:00:11;101180.18;;;10.92;63.64
38688;BME280;24444;53.216;-6.664;2022-10-10T11:02:41;101183.33;;;10.89;65.14
38688;BME280;24444;53.216;-6.664;2022-10-10T11:05:31;101186.03;;;10.38;63.69
38688;BME280;24444;53.216;-6.664;2022-10-10T11:08:09;101193.59;;;10.51;67.63
38688;BME280;24444;53.216;-6.664;2022-10-10T11:10:50;101197.40;;;10.19;67.44
38688;BME280;24444;53.216;-6.664;2022-10-10T11:13:26;101201.78;;;9.82;68.23
38688;BME280;24444;53.216;-6.664;2022-10-10T11:16:01;101200.78;;;10.01;72.41
38688;BME280;24444;53.216;-6.664;2022-10-10T11:18:33;101201.75;;;9.75;70.03
38688;BME280;24444;53.216;-6.664;2022-10-10T11:21:06;101209.57;;;9.02;68.15
38688;BME280;24444;53.216;-6.664;2022-10-10T11:23:38;101215.16;;;9.51;70.19
38688;BME280;24444;53.216;-6.664;2022-10-10T11:26:12;101215.52;;;9.97;66.36
38688;BME280;24444;53.216;-6.664;2022-10-10T11:28:47;101218.05;;;9.97;69.64
38688;BME280;24444;53.216;-6.664;2022-10-10T11:31:21;101224.14;;;9.82;66.60
38688;BME280;24444;53.216;-6.664;2022-10-10T11:33:53;101226.50;;;9.68;68.01
38688;BME280;24444;53.216;-6.664;2022-10-10T11:36:26;101226.37;;;9.66;70.47
38688;BME280;24444;53.216;-6.664;2022-10-10T11:38:58;101228.65;;;9.71;70.98
38688;BME280;24444;53.216;-6.664;2022-10-10T11:41:33;101233.76;;;10.00;69.14
38688;BME280;24444;53.216;-6.664;2022-10-10T11:44:07;101239.03;;;10.07;63.14
38688;BME280;24444;53.216;-6.664;2022-10-10T11:46:40;101243.35;;;10.36;61.49
38688;BME280;24444;53.216;-6.664;2022-10-10T11:49:17;101250.69;;;10.66;61.94
38688;BME280;24444;53.216;-6.664;2022-10-10T11:52:02;101247.98;;;10.61;60.74
38688;BME280;24444;53.216;-6.664;2022-10-10T11:54:40;101254.12;;;11.20;61.52
38688;BME280;24444;53.216;-6.664;2022-10-10T11:57:15;101259.41;;;11.19;58.77
38688;BME280;24444;53.216;-6.664;2022-10-10T11:59:47;101257.21;;;11.17;59.03
38688;BME280;24444;53.216;-6.664;2022-10-10T12:02:19;101257.82;;;11.37;58.13
38688;BME280;24444;53.216;-6.664;2022-10-10T12:04:48;101261.78;;;11.23;55.61
38688;BME280;24444;53.216;-6.664;2022-10-10T12:07:19;101266.14;;;11.42;53.05
38688;BME280;24444;53.216;-6.664;2022-10-10T12:09:52;101271.58;;;9.67;53.36
38688;BME280;24444;53.216;-6.664;2022-10-10T12:12:25;101275.64;;;9.90;58.14
38688;BME280;24444;53.216;-6.664;2022-10-10T12:14:58;101282.87;;;9.77;59.08
38688;BME280;24444;53.216;-6.664;2022-10-10T12:17:28;101282.61;;;9.75;61.03
38688;BME280;24444;53.216;-6.664;2022-10-10T12:20:08;101284.35;;;10.57;60.55
38688;BME280;24444;53.216;-6.664;2022-10-10T12:22:35;101283.31;;;10.87;56.29
38688;BME280;24444;53.216;-6.664;2022-10-10T12:25:18;101277.86;;;10.26;55.86
38688;BME280;24444;53.216;-6.664;2022-10-10T12:28:02;101274.44;;;10.80;56.36
38688;BME280;24444;53.216;-6.664;2022-10-10T12:30:30;101276.63;;;10.70;60.98
38688;BME280;24444;53.216;-6.664;2022-10-10T12:32:57;101280.99;;;11.52;60.93
38688;BME280;24444;53.216;-6.664;2022-10-10T12:35:33;101278.35;;;11.79;58.61
38688;BME280;24444;53.216;-6.664;2022-10-10T12:38:14;101280.34;;;11.31;52.61
38688;BME280;24444;53.216;-6.664;2022-10-10T12:41:53;101279.50;;;11.62;52.65
38688;BME280;24444;53.216;-6.664;2022-10-10T12:44:22;101282.38;;;11.51;60.10
38688;BME280;24444;53.216;-6.664;2022-10-10T12:47:24;101282.42;;;11.07;54.09
38688;BME280;24444;53.216;-6.664;2022-10-10T12:49:55;101293.98;;;10.62;60.58
38688;BME280;24444;53.216;-6.664;2022-10-10T12:52:26;101295.55;;;10.53;59.89
38688;BME280;24444;53.216;-6.664;2022-10-10T12:55:02;101298.21;;;10.36;61.57
38688;BME280;24444;53.216;-6.664;2022-10-10T12:57:33;101293.98;;;10.40;63.92